Time;durP1;ratioP1;P1;durP2;ratioP2;P2;SDS_P1;SDS_P2;PMS_P1;PMS_P2;Temp;Humidity;BMP_temperature;BMP_pressure;BME280_temperature;BME280_humidity;BME280_pressure;Samples;Min_cycle;Max_cycle;Signal;HPM_P1;HPM_P2
2022/06/11 00:01:32;;;;;;;1.95;1.25;;;;;;;28.12;29.83;97232.66;5051930;28;20075;-28
2022/06/11 00:04:02;;;;;;;2.92;1.30;;;;;;;28.12;29.75;97239.69;5046499;28;20033;-28
2022/06/11 00:06:28;;;;;;;4.30;1.70;;;;;;;28.13;29.95;97236.13;5033670;28;20854;-30
2022/06/11 00:08:53;;;;;;;4.22;1.38;;;;;;;28.13;29.85;97241.38;5040110;28;20075;-29
2022/06/11 00:11:19;;;;;;;2.97;1.40;;;;;;;28.13;29.80;97242.25;5038479;28;20069;-31
2022/06/11 00:13:44;;;;;;;2.03;0.98;;;;;;;28.13;29.92;97236.13;5042671;28;20131;-32
2022/06/11 00:16:10;;;;;;;3.35;1.38;;;;;;;28.12;29.84;97240.56;5040938;28;20216;-30
2022/06/11 00:18:36;;;;;;;1.95;1.10;;;;;;;28.12;29.80;97245.84;5041031;28;20013;-30
2022/06/11 00:21:03;;;;;;;6.10;1.40;;;;;;;28.13;29.96;97233.47;5038589;28;20067;-32
2022/06/11 00:23:28;;;;;;;3.42;1.27;;;;;;;28.10;29.95;97226.59;5038913;28;20025;-29
2022/06/11 00:25:54;;;;;;;3.17;1.15;;;;;;;28.13;29.85;97231.72;5039831;28;20036;-30
2022/06/11 00:28:19;;;;;;;5.22;1.30;;;;;;;28.14;29.77;97228.13;5027541;28;20047;-30
2022/06/11 00:30:45;;;;;;;3.03;1.45;;;;;;;28.14;29.81;97227.28;5039927;28;20033;-29
2022/06/11 00:33:10;;;;;;;3.53;1.10;;;;;;;28.14;29.81;97230.78;5036286;28;20047;-30
2022/06/11 00:35:37;;;;;;;3.30;1.50;;;;;;;28.14;29.83;97228.13;5040181;28;20028;-32
2022/06/11 00:38:02;;;;;;;1.90;1.13;;;;;;;28.14;29.89;97228.13;5031738;28;20057;-32
2022/06/11 00:40:28;;;;;;;1.98;1.05;;;;;;;28.14;29.93;97232.53;5041554;28;21297;-30
2022/06/11 00:42:53;;;;;;;5.85;1.55;;;;;;;28.14;29.78;97243.94;5026803;28;20071;-30
2022/06/11 00:45:27;;;;;;;2.38;1.17;;;;;;;28.14;29.83;97236.03;5041726;28;20051;-32
2022/06/11 00:48:00;;;;;;;2.20;1.40;;;;;;;28.14;29.93;97227.28;5034128;28;20021;-30
2022/06/11 00:50:33;;;;;;;1.73;1.02;;;;;;;28.15;29.79;97234.25;5040822;28;20139;-31
2022/06/11 00:52:59;;;;;;;2.55;1.05;;;;;;;28.14;29.87;97230.78;5038804;28;20036;-28
2022/06/11 00:55:31;;;;;;;2.72;1.20;;;;;;;28.14;29.83;97233.41;5023405;28;20028;-29
2022/06/11 00:57:57;;;;;;;;;;;;;;;28.15;29.84;97229.81;5026675;28;20082;-30
2022/06/11 01:00:29;;;;;;;1.67;0.95;;;;;;;28.15;30.18;97235.09;5039708;28;19923;-29
2022/06/11 01:02:54;;;;;;;;;;;;;;;28.14;29.98;97229.91;5040985;28;21184;-28
2022/06/11 01:05:28;;;;;;;2.70;1.30;;;;;;;28.15;29.92;97229.00;5037387;28;19966;-29
2022/06/11 01:08:05;;;;;;;1.40;0.98;;;;;;;28.14;29.92;97228.13;5025651;28;20037;-27
2022/06/11 01:10:36;;;;;;;2.15;1.40;;;;;;;28.13;29.98;97223.81;5032940;28;20033;-29
2022/06/11 01:13:15;;;;;;;2.72;1.15;;;;;;;28.13;29.93;97225.59;5039207;28;20036;-27
2022/06/11 01:15:53;;;;;;;1.30;0.90;;;;;;;28.13;29.98;97226.44;5047310;28;20107;-30
2022/06/11 01:18:24;;;;;;;2.40;1.30;;;;;;;28.12;29.93;97232.66;5027446;28;20031;-29
2022/06/11 01:21:00;;;;;;;2.45;1.00;;;;;;;28.12;30.06;97230.03;5044560;28;20545;-28
2022/06/11 01:24:04;;;;;;;1.75;1.00;;;;;;;28.12;30.00;97232.66;5038294;28;20063;-32
2022/06/11 01:27:02;;;;;;;1.20;0.90;;;;;;;28.13;30.08;97236.13;5040996;28;20032;-29
2022/06/11 01:29:50;;;;;;;1.60;0.93;;;;;;;28.12;30.28;97230.03;5030532;28;20024;-30
2022/06/11 01:32:40;;;;;;;2.15;1.20;;;;;;;28.13;30.07;97231.72;5041479;28;20495;-29
2022/06/11 01:35:35;;;;;;;2.97;1.08;;;;;;;28.12;30.07;97230.03;5044553;28;20039;-29
2022/06/11 01:38:06;;;;;;;4.00;0.90;;;;;;;28.12;30.16;97224.75;5034320;28;20909;-31
2022/06/11 01:40:38;;;;;;;5.38;1.40;;;;;;;28.11;30.00;97220.41;5029305;28;20035;-29
2022/06/11 01:43:14;;;;;;;1.88;1.02;;;;;;;28.12;30.20;97230.03;5049797;28;20029;-27
2022/06/11 01:45:39;;;;;;;2.05;1.00;;;;;;;28.11;29.91;97215.13;5050989;28;20127;-29
2022/06/11 01:48:09;;;;;;;2.08;1.02;;;;;;;28.12;30.03;97216.84;5053573;28;20028;-29
2022/06/11 01:50:36;;;;;;;2.33;0.68;;;;;;;28.12;29.83;97224.75;5051157;28;21330;-29
2022/06/11 01:53:21;;;;;;;1.63;1.00;;;;;;;28.12;30.10;97230.03;5035617;28;20103;-28
2022/06/11 01:55:50;;;;;;;3.20;0.90;;;;;;;28.14;30.14;97228.13;5047954;28;20987;-30
2022/06/11 01:58:27;;;;;;;1.73;0.80;;;;;;;28.13;30.18;97221.16;5042144;28;20086;-28
2022/06/11 02:01:30;;;;;;;2.10;1.13;;;;;;;28.13;29.98;97215.91;5038908;28;20152;-29
2022/06/11 02:04:01;;;;;;;1.90;1.00;;;;;;;28.14;30.07;97220.22;5039562;28;20039;-27
2022/06/11 02:06:39;;;;;;;1.52;0.80;;;;;;;28.14;30.00;97216.72;5036282;28;20032;-29
2022/06/11 02:09:23;;;;;;;3.17;0.85;;;;;;;28.13;29.99;97213.28;5027206;28;20407;-27
2022/06/11 02:11:51;;;;;;;1.98;0.93;;;;;;;28.14;30.08;97212.31;5050924;28;20139;-27
2022/06/11 02:14:23;;;;;;;2.10;1.15;;;;;;;28.14;30.04;97207.06;5041292;28;20024;-28
2022/06/11 02:16:54;;;;;;;2.35;0.88;;;;;;;28.14;30.09;97209.69;5043572;28;20094;-30
2022/06/11 02:19:31;;;;;;;1.08;0.65;;;;;;;28.14;30.22;97211.47;5039365;28;20036;-29
2022/06/11 02:22:10;;;;;;;3.35;0.95;;;;;;;28.14;30.06;97212.31;5042283;28;20115;-28
2022/06/11 02:24:38;;;;;;;2.78;1.00;;;;;;;28.13;30.07;97213.28;5031935;28;20033;-28
2022/06/11 02:27:10;;;;;;;2.97;0.90;;;;;;;28.15;30.04;97215.81;5032685;28;20465;-29
2022/06/11 02:29:36;;;;;;;2.45;0.93;;;;;;;28.14;30.04;97217.59;5034661;28;20642;-29
2022/06/11 02:32:13;;;;;;;1.63;0.80;;;;;;;28.14;29.97;97207.06;5031635;28;20017;-30
2022/06/11 02:34:40;;;;;;;4.07;1.15;;;;;;;28.15;30.04;97213.19;5028457;28;20046;-30
2022/06/11 02:37:09;;;;;;;0.90;0.63;;;;;;;28.14;30.03;97216.72;5040777;28;20032;-34
2022/06/11 02:39:36;;;;;;;1.83;0.90;;;;;;;28.14;30.23;97212.31;5032758;28;20028;-29
2022/06/11 02:42:03;;;;;;;1.98;0.80;;;;;;;28.13;30.11;97208.00;5043877;28;20040;-30
2022/06/11 02:44:28;;;;;;;2.80;1.05;;;;;;;28.11;30.08;97209.84;5043442;28;20025;-28
2022/06/11 02:46:54;;;;;;;2.22;1.17;;;;;;;28.14;30.09;97212.31;5039737;28;20036;-31
2022/06/11 02:49:23;;;;;;;1.90;0.95;;;;;;;28.14;30.12;97212.31;5047126;28;20043;-29
2022/06/11 02:51:50;;;;;;;1.35;0.93;;;;;;;28.14;30.05;97214.97;5039655;28;20036;-31
2022/06/11 02:54:15;;;;;;;2.47;0.93;;;;;;;28.14;30.21;97211.47;5049653;28;20032;-30
2022/06/11 02:56:41;;;;;;;2.67;0.88;;;;;;;28.14;30.51;97217.59;5043898;28;20039;-31
2022/06/11 02:59:06;;;;;;;2.28;0.80;;;;;;;28.14;30.27;97206.19;5046735;28;20039;-31
2022/06/11 03:01:32;;;;;;;2.85;0.80;;;;;;;28.14;30.23;97217.59;5039910;28;20036;-29
2022/06/11 03:03:58;;;;;;;0.80;0.60;;;;;;;28.14;30.17;97220.22;5040801;28;20068;-30
2022/06/11 03:06:24;;;;;;;1.27;0.80;;;;;;;28.15;30.18;97218.47;5037482;28;20121;-30
2022/06/11 03:08:49;;;;;;;1.08;0.77;;;;;;;28.14;30.28;97222.00;5040857;28;20021;-30
2022/06/11 03:11:15;;;;;;;1.33;0.68;;;;;;;28.14;30.16;97228.13;5040191;28;20024;-29
2022/06/11 03:13:40;;;;;;;1.15;0.80;;;;;;;28.15;30.09;97226.38;5041186;28;20085;-28
2022/06/11 03:16:06;;;;;;;1.90;1.10;;;;;;;28.14;30.18;97233.41;5042640;28;20036;-28
2022/06/11 03:18:32;;;;;;;1.52;0.75;;;;;;;28.14;30.14;97230.78;5043452;28;20028;-32
2022/06/11 03:20:58;;;;;;;2.15;0.75;;;;;;;28.13;30.04;97223.81;5043018;28;20093;-31
2022/06/11 03:23:23;;;;;;;1.20;0.70;;;;;;;28.14;30.23;97233.41;5042243;28;20025;-29
2022/06/11 03:25:49;;;;;;;1.85;0.60;;;;;;;28.13;30.19;97229.06;5046235;28;20411;-30
2022/06/11 03:28:20;;;;;;;1.17;0.70;;;;;;;28.13;30.24;97242.25;5049211;28;20040;-29
2022/06/11 03:30:45;;;;;;;0.90;0.63;;;;;;;28.13;30.24;97236.97;5047574;28;20475;-28
2022/06/11 03:33:11;;;;;;;1.10;0.70;;;;;;;28.13;30.19;97231.72;5046706;28;20033;-31
2022/06/11 03:35:36;;;;;;;1.40;0.77;;;;;;;28.13;30.31;97230.84;5042558;28;20033;-30
2022/06/11 03:38:02;;;;;;;0.85;0.60;;;;;;;28.14;30.36;97237.81;5045616;28;20090;-29
2022/06/11 03:40:27;;;;;;;0.65;0.60;;;;;;;28.14;30.19;97238.69;5043081;28;20506;-27
2022/06/11 03:42:53;;;;;;;2.00;0.90;;;;;;;28.13;30.10;97242.25;5048748;28;20021;-30
2022/06/11 03:45:18;;;;;;;0.73;0.60;;;;;;;28.13;30.28;97234.34;5046235;28;20847;-31
2022/06/11 03:47:44;;;;;;;0.68;0.45;;;;;;;28.14;30.31;97243.09;5041403;28;20550;-31
2022/06/11 03:50:31;;;;;;;1.67;0.70;;;;;;;28.13;30.29;97241.38;5042466;28;20051;-32
2022/06/11 03:52:57;;;;;;;1.48;0.60;;;;;;;28.14;30.29;97243.94;5036517;28;20176;-30
2022/06/11 03:55:22;;;;;;;0.60;0.50;;;;;;;28.14;30.52;97243.94;5038406;28;20037;-31
2022/06/11 03:57:48;;;;;;;2.47;0.73;;;;;;;28.14;30.17;97249.22;5040051;28;20029;-28
2022/06/11 04:00:15;;;;;;;1.52;0.70;;;;;;;28.14;30.32;97254.47;5047361;28;20032;-30
2022/06/11 04:02:40;;;;;;;2.28;0.70;;;;;;;28.14;30.26;97248.34;5045509;28;20074;-29
2022/06/11 04:05:06;;;;;;;3.05;0.70;;;;;;;28.13;30.22;97247.53;5040148;28;20040;-33
2022/06/11 04:07:32;;;;;;;0.80;0.70;;;;;;;28.13;30.16;97252.78;5036448;28;20167;-30
2022/06/11 04:09:57;;;;;;;1.00;0.70;;;;;;;28.14;30.21;97253.63;5030409;28;20067;-28
2022/06/11 04:12:22;;;;;;;1.38;0.85;;;;;;;28.14;30.20;97262.38;5046719;28;20032;-29
2022/06/11 04:14:48;;;;;;;1.67;0.70;;;;;;;28.13;30.24;97260.69;5045759;28;20097;-32
2022/06/11 04:17:23;;;;;;;2.40;0.60;;;;;;;28.13;30.30;97258.06;5040755;28;20086;-34
2022/06/11 04:19:49;;;;;;;0.70;0.60;;;;;;;28.13;30.27;97263.34;5044597;28;20115;-29
2022/06/11 04:22:15;;;;;;;0.70;0.70;;;;;;;28.14;30.28;97258.88;5041691;28;20081;-32
2022/06/11 04:24:40;;;;;;;1.10;0.50;;;;;;;28.13;30.26;97255.44;5032504;28;20020;-30
2022/06/11 04:27:07;;;;;;;1.50;0.50;;;;;;;28.13;30.20;97259.84;5040389;28;20155;-31
2022/06/11 04:29:34;;;;;;;0.80;0.52;;;;;;;28.13;30.38;97257.19;5032402;28;20027;-28
2022/06/11 04:32:00;;;;;;;0.93;0.70;;;;;;;28.13;30.24;97263.34;5045377;28;20035;-36
2022/06/11 04:34:26;;;;;;;0.82;0.60;;;;;;;28.13;30.28;97260.69;5037011;28;20500;-29
2022/06/11 04:36:51;;;;;;;1.02;0.68;;;;;;;28.13;30.33;97258.06;5038154;28;20028;-31
2022/06/11 04:39:19;;;;;;;1.52;0.60;;;;;;;28.13;30.39;97258.06;5039378;28;20372;-29
2022/06/11 04:41:44;;;;;;;0.85;0.47;;;;;;;28.13;30.32;97263.34;5039011;28;20036;-30
2022/06/11 04:44:09;;;;;;;1.73;0.55;;;;;;;28.13;30.37;97252.78;5042753;28;20032;-34
2022/06/11 04:46:35;;;;;;;1.30;0.55;;;;;;;28.13;30.70;97262.47;5041023;28;20016;-27
2022/06/11 04:49:00;;;;;;;0.68;0.50;;;;;;;28.14;30.38;97258.88;5041056;28;20083;-31
2022/06/11 04:51:26;;;;;;;1.15;0.70;;;;;;;28.13;30.39;97263.34;5051381;28;20109;-32
2022/06/11 04:53:51;;;;;;;4.20;0.60;;;;;;;28.14;30.34;97270.28;5030367;28;20067;-28
2022/06/11 04:56:19;;;;;;;0.77;0.60;;;;;;;28.13;30.42;97259.84;5040566;28;20034;-34
2022/06/11 04:58:45;;;;;;;0.70;0.70;;;;;;;28.14;30.27;97265.03;5047050;28;20024;-30
2022/06/11 05:01:10;;;;;;;0.73;0.50;;;;;;;28.14;30.26;97259.75;5040485;28;20217;-28
2022/06/11 05:03:36;;;;;;;2.55;0.70;;;;;;;28.14;30.43;97272.94;5041662;28;20048;-32
2022/06/11 05:06:02;;;;;;;0.63;0.47;;;;;;;28.13;30.47;97263.34;5046529;28;20028;-29
2022/06/11 05:08:27;;;;;;;0.95;0.63;;;;;;;28.13;30.47;97273.88;5043984;28;20035;-28
2022/06/11 05:10:53;;;;;;;0.95;0.50;;;;;;;28.12;30.44;97269.53;5053223;28;20021;-29
2022/06/11 05:13:18;;;;;;;0.95;0.85;;;;;;;28.13;30.46;97267.75;5049894;28;20047;-30
2022/06/11 05:15:45;;;;;;;1.20;0.57;;;;;;;28.12;30.36;97272.19;5047230;28;20213;-33
2022/06/11 05:18:11;;;;;;;1.02;0.65;;;;;;;28.12;30.48;97272.19;5047102;28;20036;-34
2022/06/11 05:20:36;;;;;;;0.40;0.40;;;;;;;28.13;30.28;97276.50;5039564;28;20033;-29
2022/06/11 05:23:02;;;;;;;0.63;0.50;;;;;;;28.13;30.20;97278.28;5043296;28;20033;-28
2022/06/11 05:25:27;;;;;;;0.73;0.50;;;;;;;28.14;30.40;97279.97;5047109;28;20376;-30
2022/06/11 05:27:53;;;;;;;0.93;0.63;;;;;;;28.14;30.32;97279.97;5042359;28;20036;-31
2022/06/11 05:30:20;;;;;;;0.50;0.32;;;;;;;28.13;30.33;97284.41;5044557;28;20043;-27
2022/06/11 05:32:46;;;;;;;0.82;0.47;;;;;;;28.14;30.32;97285.25;5039489;28;20032;-28
2022/06/11 05:35:15;;;;;;;0.60;0.50;;;;;;;28.13;30.47;97284.41;5044794;28;20033;-28
2022/06/11 05:37:40;;;;;;;1.35;0.68;;;;;;;28.13;30.41;97289.69;5035625;28;20500;-29
2022/06/11 05:40:07;;;;;;;0.60;0.40;;;;;;;28.14;30.40;97290.50;5033932;28;20037;-31
2022/06/11 05:42:32;;;;;;;1.42;0.60;;;;;;;28.12;30.38;97285.34;5041842;28;20034;-29
2022/06/11 05:44:58;;;;;;;1.23;0.47;;;;;;;28.13;30.52;97284.41;5045092;28;20418;-29
2022/06/11 05:47:23;;;;;;;0.35;0.30;;;;;;;28.13;30.42;97287.03;5049379;28;20032;-28
2022/06/11 05:49:50;;;;;;;1.00;0.55;;;;;;;28.13;30.50;97289.69;5039056;28;20150;-32
2022/06/11 05:52:20;;;;;;;1.75;0.68;;;;;;;28.14;30.62;97293.16;5035338;28;20029;-29
2022/06/11 05:54:46;;;;;;;0.40;0.40;;;;;;;28.14;30.53;97301.91;5041539;28;21961;-29
2022/06/11 05:57:12;;;;;;;1.58;0.55;;;;;;;28.14;30.63;97299.28;5047103;28;20029;-30
2022/06/11 05:59:43;;;;;;;0.93;0.60;;;;;;;28.13;30.54;97297.59;5046662;28;20490;-29
2022/06/11 06:02:10;;;;;;;0.50;0.40;;;;;;;28.14;30.37;97299.28;5015850;28;20025;-29
2022/06/11 06:04:36;;;;;;;0.85;0.50;;;;;;;28.15;30.59;97293.06;5035927;28;20041;-28
2022/06/11 06:07:02;;;;;;;0.73;0.40;;;;;;;28.15;30.61;97303.59;5041136;28;20033;-29
2022/06/11 06:09:28;;;;;;;0.82;0.43;;;;;;;28.15;30.56;97298.34;5043577;28;20719;-28
2022/06/11 06:11:53;;;;;;;1.30;0.50;;;;;;;28.14;30.50;97296.63;5041362;28;20530;-30
2022/06/11 06:14:19;;;;;;;0.40;0.40;;;;;;;28.15;30.65;97300.97;5038127;28;20677;-35
2022/06/11 06:16:44;;;;;;;2.55;0.85;;;;;;;28.15;30.52;97298.34;5024183;28;20032;-29
2022/06/11 06:19:09;;;;;;;0.50;0.40;;;;;;;28.15;30.40;97295.69;5025224;28;20044;-31
2022/06/11 06:21:36;;;;;;;8.82;3.15;;;;;;;28.15;30.38;97303.59;5028376;28;20056;-31
2022/06/11 06:24:03;;;;;;;3.30;0.68;;;;;;;28.15;30.52;97295.69;5023043;28;20997;-31
2022/06/11 06:26:28;;;;;;;5.30;0.80;;;;;;;28.13;30.53;97297.59;5036433;28;21558;-31
2022/06/11 06:28:54;;;;;;;16.25;2.70;;;;;;;28.16;30.47;97294.78;5043443;28;20041;-32
2022/06/11 06:31:20;;;;;;;6.97;2.25;;;;;;;28.16;30.36;97305.31;5042716;28;20062;-30
2022/06/11 06:33:45;;;;;;;8.63;2.10;;;;;;;28.16;30.17;97305.31;5046143;28;20036;-30
2022/06/11 06:36:11;;;;;;;4.15;2.13;;;;;;;28.16;30.13;97307.97;5041568;28;20608;-29
2022/06/11 06:38:36;;;;;;;10.38;2.28;;;;;;;28.14;30.15;97307.19;5041242;28;20167;-29
2022/06/11 06:41:03;;;;;;;6.60;2.25;;;;;;;28.14;30.19;97301.91;5040461;28;20074;-31
2022/06/11 06:43:28;;;;;;;4.18;2.00;;;;;;;28.12;30.10;97308.19;5044915;28;20716;-29
2022/06/11 06:45:54;;;;;;;8.73;2.38;;;;;;;28.12;30.08;97309.06;5045524;28;20028;-29
2022/06/11 06:48:19;;;;;;;3.33;1.67;;;;;;;28.11;30.12;97307.34;5042502;28;20032;-28
2022/06/11 06:50:44;;;;;;;6.70;1.75;;;;;;;28.10;29.86;97308.28;5042257;28;20048;-34
2022/06/11 06:53:10;;;;;;;6.32;1.63;;;;;;;28.09;29.59;97301.31;5036782;28;20142;-27
2022/06/11 06:55:35;;;;;;;4.20;1.90;;;;;;;28.09;29.45;97311.84;5034477;28;20028;-32
2022/06/11 06:58:01;;;;;;;4.90;2.03;;;;;;;28.07;29.55;97311.06;5039296;28;20032;-30
2022/06/11 07:00:26;;;;;;;4.18;1.67;;;;;;;28.06;29.48;97309.38;5039034;28;20021;-31
2022/06/11 07:02:54;;;;;;;3.13;1.48;;;;;;;28.06;29.66;97308.56;5035864;28;20765;-29
2022/06/11 07:05:20;;;;;;;6.10;1.70;;;;;;;28.06;29.66;97306.75;5039180;28;20040;-34
2022/06/11 07:07:48;;;;;;;4.32;1.73;;;;;;;28.06;29.62;97309.38;5043222;28;20036;-29
2022/06/11 07:10:13;;;;;;;4.03;1.48;;;;;;;28.06;29.73;97304.13;5044601;28;20039;-30
2022/06/11 07:12:39;;;;;;;3.17;1.45;;;;;;;28.06;29.66;97309.38;5046008;28;20016;-34
2022/06/11 07:15:06;;;;;;;5.22;1.92;;;;;;;28.07;29.65;97315.50;5043380;28;20103;-31
2022/06/11 07:17:34;;;;;;;4.90;1.80;;;;;;;28.07;29.57;97313.72;5044542;28;20033;-32
2022/06/11 07:20:04;;;;;;;6.32;1.63;;;;;;;28.07;29.77;97308.44;5038331;28;20032;-29
2022/06/11 07:22:34;;;;;;;5.47;1.40;;;;;;;28.09;29.88;97309.22;5038268;28;20918;-29
2022/06/11 07:25:00;;;;;;;6.32;1.70;;;;;;;28.09;29.75;97318.91;5047339;28;20016;-29
2022/06/11 07:27:27;;;;;;;6.60;1.90;;;;;;;28.07;29.76;97305.81;5046423;28;20028;-31
2022/06/11 07:30:14;;;;;;;3.83;1.52;;;;;;;28.07;29.87;97311.06;5046802;28;21048;-29
2022/06/11 07:32:40;;;;;;;3.97;1.42;;;;;;;28.05;29.79;97307.69;5040454;28;20024;-28
2022/06/11 07:35:07;;;;;;;5.05;1.45;;;;;;;28.03;29.89;97305.13;5043525;28;20566;-29
2022/06/11 07:37:32;;;;;;;4.75;2.00;;;;;;;28.02;29.72;97302.56;5042289;28;20033;-29
2022/06/11 07:39:58;;;;;;;4.53;1.23;;;;;;;27.99;29.92;97303.59;5043342;28;20515;-29
2022/06/11 07:42:24;;;;;;;5.32;2.20;;;;;;;27.97;29.93;97309.88;5043478;28;20761;-30
2022/06/11 07:44:49;;;;;;;4.65;1.90;;;;;;;27.94;29.84;97310.03;5040197;28;20063;-30
2022/06/11 07:47:53;;;;;;;5.28;2.00;;;;;;;27.91;29.93;97305.78;5045987;28;20102;-30
2022/06/11 07:50:00;;;;;;;6.00;1.80;;;;;;;27.91;30.24;97306.66;5044366;28;20739;-30
2022/06/11 07:52:26;;;;;;;4.07;1.90;;;;;;;27.90;30.29;97304.97;5046921;28;20032;-29
2022/06/11 07:54:51;;;;;;;6.15;1.75;;;;;;;27.88;30.12;97306.81;5044716;28;20039;-36
2022/06/11 07:57:17;;;;;;;7.22;1.77;;;;;;;27.84;30.17;97302.63;5041291;28;20063;-28
2022/06/11 07:59:42;;;;;;;11.52;1.90;;;;;;;27.86;30.47;97306.06;5047267;28;20032;-32
2022/06/11 08:02:07;;;;;;;7.18;2.03;;;;;;;27.86;30.64;97302.56;5043003;28;20662;-27
2022/06/11 08:04:34;;;;;;;6.38;1.90;;;;;;;27.85;30.50;97304.38;5045475;28;20072;-29
2022/06/11 08:06:59;;;;;;;5.93;1.63;;;;;;;27.86;30.55;97298.16;5045722;28;20053;-29
2022/06/11 08:09:25;;;;;;;4.25;1.55;;;;;;;27.85;30.57;97301.72;5045462;28;20035;-31
2022/06/11 08:11:50;;;;;;;6.50;1.67;;;;;;;27.87;30.69;97302.47;5046202;28;20024;-28
2022/06/11 08:14:15;;;;;;;7.30;2.30;;;;;;;27.88;30.45;97298.91;5042483;28;20040;-33
2022/06/11 08:16:41;;;;;;;7.15;2.72;;;;;;;27.89;30.25;97299.78;5042132;28;20740;-29
2022/06/11 08:19:06;;;;;;;5.40;1.92;;;;;;;27.89;30.35;97303.22;5041477;28;20028;-29
2022/06/11 08:21:32;;;;;;;5.97;2.05;;;;;;;27.89;30.24;97300.59;5044311;28;20129;-29
2022/06/11 08:23:57;;;;;;;5.22;1.95;;;;;;;27.90;29.92;97294.41;5043915;28;22463;-29
2022/06/11 08:26:22;;;;;;;5.85;1.58;;;;;;;27.91;29.68;97303.16;5036494;28;20491;-29
2022/06/11 08:28:48;;;;;;;5.75;1.85;;;;;;;27.91;29.70;97301.38;5035138;28;20028;-33
2022/06/11 08:31:13;;;;;;;13.00;1.88;;;;;;;27.92;29.70;97297.81;5037876;28;20071;-30
2022/06/11 08:33:39;;;;;;;8.82;1.85;;;;;;;27.93;29.62;97303.94;5040823;28;20028;-30
2022/06/11 08:36:04;;;;;;;7.53;2.15;;;;;;;27.94;29.31;97307.41;5040640;28;20491;-29
2022/06/11 08:38:30;;;;;;;6.28;1.67;;;;;;;27.94;29.65;97304.78;5045874;28;20898;-29
2022/06/11 08:40:55;;;;;;;8.65;1.67;;;;;;;27.95;29.57;97311.75;5047284;28;20028;-29
2022/06/11 08:43:28;;;;;;;9.10;1.85;;;;;;;27.97;29.76;97312.50;5042389;28;20750;-29
2022/06/11 08:45:57;;;;;;;7.05;1.80;;;;;;;27.98;29.66;97311.56;5044520;28;20016;-29
2022/06/11 08:48:41;;;;;;;5.07;2.10;;;;;;;27.98;29.68;97311.56;5037280;28;20468;-29
2022/06/11 08:51:20;;;;;;;5.75;2.40;;;;;;;28.01;29.95;97307.00;5034586;28;20067;-31
2022/06/11 08:53:46;;;;;;;7.30;2.88;;;;;;;28.02;29.79;97307.84;5032657;28;20041;-31
2022/06/11 08:56:44;;;;;;;6.40;2.95;;;;;;;28.03;29.92;97309.53;5044496;28;20072;-30
2022/06/11 08:59:09;;;;;;;9.75;3.20;;;;;;;28.04;30.00;97306.00;5038000;28;20530;-29
2022/06/11 09:01:42;;;;;;;7.07;3.30;;;;;;;28.04;30.22;97301.56;5043080;28;20071;-29
2022/06/11 09:04:13;;;;;;;7.85;3.47;;;;;;;28.05;29.86;97297.16;5040467;28;20820;-29
2022/06/11 09:06:44;;;;;;;7.97;3.40;;;;;;;28.06;29.98;97298.84;5034775;28;20414;-28
2022/06/11 09:09:24;;;;;;;10.73;3.60;;;;;;;28.08;30.04;97299.63;5040189;28;20040;-29
2022/06/11 09:11:53;;;;;;;9.30;3.35;;;;;;;28.08;29.96;97299.63;5022477;28;20052;-32
2022/06/11 09:14:21;;;;;;;6.75;2.83;;;;;;;28.11;30.27;97302.06;5038101;28;20033;-29
2022/06/11 09:17:05;;;;;;;8.25;2.80;;;;;;;28.11;29.89;97291.53;5044862;28;20031;-30
2022/06/11 09:19:45;;;;;;;8.90;3.38;;;;;;;28.12;30.17;97287.97;5046553;28;20076;-29
2022/06/11 09:22:22;;;;;;;10.95;3.10;;;;;;;28.13;30.07;97287.03;5048109;28;20636;-29
2022/06/11 09:24:55;;;;;;;8.45;2.92;;;;;;;28.13;29.82;97289.69;5049324;28;20593;-30
2022/06/11 09:27:56;;;;;;;7.35;2.70;;;;;;;28.15;29.91;97287.78;5052094;28;20365;-30
2022/06/11 09:30:34;;;;;;;6.30;2.75;;;;;;;28.15;29.98;97287.78;5049597;28;20490;-29
2022/06/11 09:33:06;;;;;;;6.88;2.55;;;;;;;28.16;29.90;97286.88;5040432;28;20043;-31
2022/06/11 09:35:39;;;;;;;6.13;2.45;;;;;;;28.16;29.87;97284.25;5052222;28;20029;-30
2022/06/11 09:38:07;;;;;;;6.07;2.42;;;;;;;28.18;29.89;97281.50;5058113;28;20024;-30
2022/06/11 09:40:49;;;;;;;8.20;2.53;;;;;;;28.18;29.83;97287.63;5049085;28;20063;-34
2022/06/11 09:43:46;;;;;;;11.75;2.50;;;;;;;28.20;30.02;97284.06;5051931;28;20056;-29
2022/06/11 09:46:37;;;;;;;5.63;2.40;;;;;;;28.21;30.12;97288.38;5047197;28;20064;-30
2022/06/11 09:49:20;;;;;;;7.20;2.58;;;;;;;28.20;29.90;97284.91;5041929;28;20736;-30
2022/06/11 09:51:54;;;;;;;4.78;2.22;;;;;;;28.22;30.16;97284.84;5044989;28;20036;-30
2022/06/11 09:54:44;;;;;;;6.35;2.40;;;;;;;28.22;29.99;97276.94;5048390;28;20020;-33
2022/06/11 09:57:31;;;;;;;7.10;2.17;;;;;;;28.22;30.11;97283.03;5042300;28;20028;-31
2022/06/11 10:00:02;;;;;;;7.18;2.50;;;;;;;28.24;30.01;97285.59;5045429;28;20059;-29
2022/06/11 10:02:42;;;;;;;5.47;2.55;;;;;;;28.24;30.09;97288.22;5044567;28;20115;-29
2022/06/11 10:05:20;;;;;;;5.47;2.15;;;;;;;28.25;29.71;97289.91;5042749;28;20040;-31
2022/06/11 10:07:47;;;;;;;6.85;2.40;;;;;;;28.25;29.83;97287.28;5044481;28;20935;-34
2022/06/11 10:10:23;;;;;;;4.95;2.15;;;;;;;28.25;29.85;97282.91;5049786;28;20060;-29
2022/06/11 10:13:06;;;;;;;6.00;2.13;;;;;;;28.27;29.88;97296.00;5061912;28;20460;-34
2022/06/11 10:15:33;;;;;;;5.43;2.22;;;;;;;28.27;29.98;97290.72;5046093;28;20043;-33
2022/06/11 10:18:03;;;;;;;5.38;2.10;;;;;;;28.28;30.02;97295.91;5024684;28;20048;-31
2022/06/11 10:20:29;;;;;;;5.43;2.25;;;;;;;28.28;29.73;97290.66;5045168;28;21132;-29
2022/06/11 10:23:16;;;;;;;6.85;2.42;;;;;;;28.29;29.86;97288.84;5043980;28;20082;-29
2022/06/11 10:25:52;;;;;;;4.85;2.58;;;;;;;28.31;29.85;97289.63;5042876;28;20925;-29
2022/06/11 10:28:31;;;;;;;9.48;2.20;;;;;;;28.33;29.90;97287.75;5043167;28;20033;-29
2022/06/11 10:31:00;;;;;;;9.68;2.20;;;;;;;28.30;29.78;97285.31;5047083;28;20091;-32
2022/06/11 10:33:30;;;;;;;7.10;2.33;;;;;;;28.33;29.83;97285.09;5046448;28;20054;-31
2022/06/11 10:36:03;;;;;;;6.75;2.17;;;;;;;28.33;30.03;97285.09;5030133;28;20037;-30
2022/06/11 10:38:47;;;;;;;9.85;2.42;;;;;;;28.35;29.93;97287.66;5043145;28;20029;-31
2022/06/11 10:41:35;;;;;;;4.95;2.05;;;;;;;28.34;29.92;97281.53;5045413;28;20051;-30
2022/06/11 10:44:05;;;;;;;5.63;2.20;;;;;;;28.36;29.94;97284.09;5057078;28;20093;-30
2022/06/11 10:46:32;;;;;;;4.40;1.90;;;;;;;28.36;29.79;97279.66;5045246;28;20025;-34
2022/06/11 10:48:59;;;;;;;5.20;1.85;;;;;;;28.37;29.90;97281.38;5031006;28;20052;-33
2022/06/11 10:51:28;;;;;;;8.10;2.03;;;;;;;28.38;29.98;97283.06;5046859;28;20024;-32
2022/06/11 10:53:56;;;;;;;8.13;1.90;;;;;;;28.39;30.02;97276.88;5052708;28;20043;-29
2022/06/11 10:56:53;;;;;;;3.47;1.52;;;;;;;28.39;30.01;97266.31;5054192;28;20044;-30
2022/06/11 10:59:29;;;;;;;3.92;1.95;;;;;;;28.41;30.11;97268.84;5033324;28;20029;-29
2022/06/11 11:02:13;;;;;;;4.15;1.85;;;;;;;28.39;30.12;97261.06;5005989;28;20024;-30
2022/06/11 11:04:53;;;;;;;11.02;1.77;;;;;;;28.42;30.25;97266.13;5021897;28;20024;-30
2022/06/11 11:07:20;;;;;;;7.15;2.13;;;;;;;28.45;30.04;97265.09;5009980;28;20043;-30
2022/06/11 11:09:45;;;;;;;9.23;1.95;;;;;;;28.45;30.01;97262.47;5006041;28;21495;-33
2022/06/11 11:12:21;;;;;;;4.68;1.90;;;;;;;28.46;30.08;97265.97;5020959;28;20033;-32
2022/06/11 11:14:55;;;;;;;8.85;1.90;;;;;;;28.47;30.08;97265.03;5027228;28;20039;-36
2022/06/11 11:17:22;;;;;;;6.35;1.92;;;;;;;28.47;30.29;97257.97;5019539;28;20258;-32
2022/06/11 11:22:36;;;;;;;5.60;1.58;;;;;;;28.50;29.92;97259.59;5036309;28;20502;-30
2022/06/11 11:25:02;;;;;;;5.00;1.92;;;;;;;28.49;30.11;97263.16;5026591;28;20040;-33
2022/06/11 11:27:30;;;;;;;6.43;1.80;;;;;;;28.49;30.27;97252.63;5041952;28;20031;-33
2022/06/11 11:30:20;;;;;;;7.75;1.95;;;;;;;28.51;29.91;97256.00;5036203;28;20111;-29
2022/06/11 11:32:46;;;;;;;6.80;2.05;;;;;;;28.50;30.08;97251.69;5025257;28;20632;-31
2022/06/11 11:35:14;;;;;;;4.40;1.83;;;;;;;28.50;29.96;97255.19;5036720;28;20158;-38
2022/06/11 11:37:39;;;;;;;4.50;1.77;;;;;;;28.50;29.82;97249.03;5035423;28;20132;-29
2022/06/11 11:40:23;;;;;;;4.80;1.88;;;;;;;28.50;29.71;97243.78;5041261;28;20032;-31
2022/06/11 11:42:48;;;;;;;6.55;1.67;;;;;;;28.49;29.72;97248.19;5045464;28;20029;-32
2022/06/11 11:45:23;;;;;;;8.10;2.05;;;;;;;28.50;29.60;97249.03;5029093;28;20037;-30
2022/06/11 11:47:50;;;;;;;5.90;2.00;;;;;;;28.51;29.54;97245.47;5044389;28;20032;-30
2022/06/11 11:50:31;;;;;;;4.18;1.70;;;;;;;28.51;29.12;97241.03;5045745;28;20104;-30